sensor_id;sensor_type;location;lat;lon;timestamp;temperature;humidity
47805;DHT22;33568;45.286;9.900;2023-02-15T00:00:37;7.00;77.40
47805;DHT22;33568;45.286;9.900;2023-02-15T00:03:04;7.00;77.60
47805;DHT22;33568;45.286;9.900;2023-02-15T00:05:30;6.90;77.70
47805;DHT22;33568;45.286;9.900;2023-02-15T00:07:57;6.90;77.70
47805;DHT22;33568;45.286;9.900;2023-02-15T00:10:23;6.80;77.80
47805;DHT22;33568;45.286;9.900;2023-02-15T00:12:50;6.70;78.00
47805;DHT22;33568;45.286;9.900;2023-02-15T00:15:16;6.70;78.10
47805;DHT22;33568;45.286;9.900;2023-02-15T00:17:42;6.60;78.40
47805;DHT22;33568;45.286;9.900;2023-02-15T00:20:09;6.50;79.80
47805;DHT22;33568;45.286;9.900;2023-02-15T00:22:36;6.40;78.20
47805;DHT22;33568;45.286;9.900;2023-02-15T00:25:02;6.30;77.80
47805;DHT22;33568;45.286;9.900;2023-02-15T00:27:29;6.20;77.80
47805;DHT22;33568;45.286;9.900;2023-02-15T00:29:56;6.20;77.60
47805;DHT22;33568;45.286;9.900;2023-02-15T00:32:22;6.10;77.90
47805;DHT22;33568;45.286;9.900;2023-02-15T00:34:49;6.00;78.20
47805;DHT22;33568;45.286;9.900;2023-02-15T00:37:16;5.90;78.40
47805;DHT22;33568;45.286;9.900;2023-02-15T00:39:46;5.90;79.10
47805;DHT22;33568;45.286;9.900;2023-02-15T00:42:13;5.80;79.40
47805;DHT22;33568;45.286;9.900;2023-02-15T00:44:39;5.80;79.80
47805;DHT22;33568;45.286;9.900;2023-02-15T00:47:06;5.80;80.00
47805;DHT22;33568;45.286;9.900;2023-02-15T00:49:32;5.80;80.20
47805;DHT22;33568;45.286;9.900;2023-02-15T00:51:58;5.80;80.20
47805;DHT22;33568;45.286;9.900;2023-02-15T00:54:25;5.80;80.30
47805;DHT22;33568;45.286;9.900;2023-02-15T00:56:51;5.80;80.40
47805;DHT22;33568;45.286;9.900;2023-02-15T00:59:18;5.80;80.50
47805;DHT22;33568;45.286;9.900;2023-02-15T01:01:44;5.70;82.20
47805;DHT22;33568;45.286;9.900;2023-02-15T01:04:12;5.70;80.50
47805;DHT22;33568;45.286;9.900;2023-02-15T01:06:38;5.70;80.50
47805;DHT22;33568;45.286;9.900;2023-02-15T01:09:05;5.70;80.70
47805;DHT22;33568;45.286;9.900;2023-02-15T01:11:31;5.70;80.90
47805;DHT22;33568;45.286;9.900;2023-02-15T01:13:58;5.70;81.00
47805;DHT22;33568;45.286;9.900;2023-02-15T01:16:26;5.70;83.30
47805;DHT22;33568;45.286;9.900;2023-02-15T01:18:53;5.70;81.30
47805;DHT22;33568;45.286;9.900;2023-02-15T01:21:22;5.70;81.40
47805;DHT22;33568;45.286;9.900;2023-02-15T01:23:49;5.80;81.70
47805;DHT22;33568;45.286;9.900;2023-02-15T01:26:16;5.90;81.90
47805;DHT22;33568;45.286;9.900;2023-02-15T01:28:44;5.80;81.90
47805;DHT22;33568;45.286;9.900;2023-02-15T01:31:14;5.80;81.90
47805;DHT22;33568;45.286;9.900;2023-02-15T01:33:41;5.70;82.10
47805;DHT22;33568;45.286;9.900;2023-02-15T01:36:10;5.70;82.40
47805;DHT22;33568;45.286;9.900;2023-02-15T01:38:38;5.70;82.40
47805;DHT22;33568;45.286;9.900;2023-02-15T01:41:06;5.60;82.30
47805;DHT22;33568;45.286;9.900;2023-02-15T01:43:58;5.60;82.30
47805;DHT22;33568;45.286;9.900;2023-02-15T01:46:38;5.50;82.50
47805;DHT22;33568;45.286;9.900;2023-02-15T01:49:15;5.50;82.80
47805;DHT22;33568;45.286;9.900;2023-02-15T01:51:44;5.50;82.80
47805;DHT22;33568;45.286;9.900;2023-02-15T01:54:15;5.40;82.80
47805;DHT22;33568;45.286;9.900;2023-02-15T01:56:44;5.50;83.00
47805;DHT22;33568;45.286;9.900;2023-02-15T01:59:17;5.50;83.00
47805;DHT22;33568;45.286;9.900;2023-02-15T02:01:46;5.50;83.10
47805;DHT22;33568;45.286;9.900;2023-02-15T02:04:15;5.50;83.20
47805;DHT22;33568;45.286;9.900;2023-02-15T02:06:45;5.50;83.40
47805;DHT22;33568;45.286;9.900;2023-02-15T02:09:12;5.60;83.50
47805;DHT22;33568;45.286;9.900;2023-02-15T02:11:41;5.60;83.40
47805;DHT22;33568;45.286;9.900;2023-02-15T02:14:12;5.60;83.50
47805;DHT22;33568;45.286;9.900;2023-02-15T02:27:42;5.40;84.00
47805;DHT22;33568;45.286;9.900;2023-02-15T02:38:27;5.00;84.40
47805;DHT22;33568;45.286;9.900;2023-02-15T02:41:16;4.90;84.80
47805;DHT22;33568;45.286;9.900;2023-02-15T02:44:01;4.90;85.60
47805;DHT22;33568;45.286;9.900;2023-02-15T02:46:34;4.90;85.40
47805;DHT22;33568;45.286;9.900;2023-02-15T02:49:03;4.80;85.40
47805;DHT22;33568;45.286;9.900;2023-02-15T02:51:30;4.80;85.40
47805;DHT22;33568;45.286;9.900;2023-02-15T02:54:00;4.80;85.40
47805;DHT22;33568;45.286;9.900;2023-02-15T02:56:37;4.80;85.40
47805;DHT22;33568;45.286;9.900;2023-02-15T03:01:57;4.80;85.90
47805;DHT22;33568;45.286;9.900;2023-02-15T03:04:35;4.80;86.20
47805;DHT22;33568;45.286;9.900;2023-02-15T03:07:06;4.80;86.40
47805;DHT22;33568;45.286;9.900;2023-02-15T03:09:37;4.80;87.10
47805;DHT22;33568;45.286;9.900;2023-02-15T03:12:29;4.80;87.70
47805;DHT22;33568;45.286;9.900;2023-02-15T03:15:15;4.90;88.30
47805;DHT22;33568;45.286;9.900;2023-02-15T03:17:51;4.90;87.90
47805;DHT22;33568;45.286;9.900;2023-02-15T03:20:24;4.90;87.80
47805;DHT22;33568;45.286;9.900;2023-02-15T03:25:35;4.80;88.40
47805;DHT22;33568;45.286;9.900;2023-02-15T03:28:13;4.80;89.00
47805;DHT22;33568;45.286;9.900;2023-02-15T03:30:45;4.80;89.30
47805;DHT22;33568;45.286;9.900;2023-02-15T03:33:13;4.80;89.10
47805;DHT22;33568;45.286;9.900;2023-02-15T03:35:49;4.90;89.10
47805;DHT22;33568;45.286;9.900;2023-02-15T03:38:20;4.90;89.10
47805;DHT22;33568;45.286;9.900;2023-02-15T03:40:53;4.90;88.90
47805;DHT22;33568;45.286;9.900;2023-02-15T03:46:28;4.90;89.10
47805;DHT22;33568;45.286;9.900;2023-02-15T03:49:06;4.80;88.80
47805;DHT22;33568;45.286;9.900;2023-02-15T03:51:36;4.80;88.70
47805;DHT22;33568;45.286;9.900;2023-02-15T03:54:15;4.80;88.80
47805;DHT22;33568;45.286;9.900;2023-02-15T03:57:09;4.80;88.90
47805;DHT22;33568;45.286;9.900;2023-02-15T03:59:56;4.80;89.10
47805;DHT22;33568;45.286;9.900;2023-02-15T04:05:37;4.70;89.50
47805;DHT22;33568;45.286;9.900;2023-02-15T04:08:04;4.70;89.10
47805;DHT22;33568;45.286;9.900;2023-02-15T04:10:31;4.80;89.10
47805;DHT22;33568;45.286;9.900;2023-02-15T04:13:16;4.70;89.00
47805;DHT22;33568;45.286;9.900;2023-02-15T04:15:42;4.70;89.00
47805;DHT22;33568;45.286;9.900;2023-02-15T04:18:27;4.70;89.00
47805;DHT22;33568;45.286;9.900;2023-02-15T04:21:12;4.70;89.30
47805;DHT22;33568;45.286;9.900;2023-02-15T04:23:57;4.70;89.40
47805;DHT22;33568;45.286;9.900;2023-02-15T04:26:42;4.70;89.70
47805;DHT22;33568;45.286;9.900;2023-02-15T04:29:08;4.60;89.60
47805;DHT22;33568;45.286;9.900;2023-02-15T04:31:34;4.70;89.80
47805;DHT22;33568;45.286;9.900;2023-02-15T04:34:01;4.60;90.70
47805;DHT22;33568;45.286;9.900;2023-02-15T04:36:27;4.60;89.70
47805;DHT22;33568;45.286;9.900;2023-02-15T04:38:53;4.60;89.60
47805;DHT22;33568;45.286;9.900;2023-02-15T04:41:20;4.60;89.70
47805;DHT22;33568;45.286;9.900;2023-02-15T04:43:46;4.50;89.80
47805;DHT22;33568;45.286;9.900;2023-02-15T04:46:13;4.50;89.90
47805;DHT22;33568;45.286;9.900;2023-02-15T04:48:39;4.50;90.00
47805;DHT22;33568;45.286;9.900;2023-02-15T04:51:06;4.50;90.10
47805;DHT22;33568;45.286;9.900;2023-02-15T04:53:34;4.50;91.30
47805;DHT22;33568;45.286;9.900;2023-02-15T04:56:01;4.50;90.30
47805;DHT22;33568;45.286;9.900;2023-02-15T04:58:28;4.50;90.20
47805;DHT22;33568;45.286;9.900;2023-02-15T05:00:57;4.50;90.20
47805;DHT22;33568;45.286;9.900;2023-02-15T05:03:24;4.50;90.20
47805;DHT22;33568;45.286;9.900;2023-02-15T05:05:51;4.50;90.50
47805;DHT22;33568;45.286;9.900;2023-02-15T05:08:17;4.50;90.30
47805;DHT22;33568;45.286;9.900;2023-02-15T05:10:44;4.50;90.30
47805;DHT22;33568;45.286;9.900;2023-02-15T05:13:10;4.50;90.30
47805;DHT22;33568;45.286;9.900;2023-02-15T05:15:36;4.50;90.40
47805;DHT22;33568;45.286;9.900;2023-02-15T05:18:03;4.50;90.40
47805;DHT22;33568;45.286;9.900;2023-02-15T05:20:29;4.50;90.40
47805;DHT22;33568;45.286;9.900;2023-02-15T05:22:56;4.50;90.30
47805;DHT22;33568;45.286;9.900;2023-02-15T05:25:22;4.40;90.30
47805;DHT22;33568;45.286;9.900;2023-02-15T05:28:11;4.40;91.00
47805;DHT22;33568;45.286;9.900;2023-02-15T05:30:59;4.30;90.20
47805;DHT22;33568;45.286;9.900;2023-02-15T05:33:27;4.30;90.20
47805;DHT22;33568;45.286;9.900;2023-02-15T05:35:53;4.30;90.10
47805;DHT22;33568;45.286;9.900;2023-02-15T05:38:19;4.20;90.00
47805;DHT22;33568;45.286;9.900;2023-02-15T05:40:46;4.20;90.00
47805;DHT22;33568;45.286;9.900;2023-02-15T05:43:12;4.10;89.90
47805;DHT22;33568;45.286;9.900;2023-02-15T05:45:38;4.00;90.30
47805;DHT22;33568;45.286;9.900;2023-02-15T05:48:05;4.00;89.90
47805;DHT22;33568;45.286;9.900;2023-02-15T05:50:31;4.00;89.80
47805;DHT22;33568;45.286;9.900;2023-02-15T05:52:59;4.00;89.70
47805;DHT22;33568;45.286;9.900;2023-02-15T05:55:26;3.90;89.60
47805;DHT22;33568;45.286;9.900;2023-02-15T05:57:52;3.90;90.00
47805;DHT22;33568;45.286;9.900;2023-02-15T06:00:19;3.90;90.00
47805;DHT22;33568;45.286;9.900;2023-02-15T06:02:45;3.90;90.00
47805;DHT22;33568;45.286;9.900;2023-02-15T06:05:12;3.90;90.10
47805;DHT22;33568;45.286;9.900;2023-02-15T06:07:38;3.90;90.40
47805;DHT22;33568;45.286;9.900;2023-02-15T06:10:05;3.80;91.60
47805;DHT22;33568;45.286;9.900;2023-02-15T06:12:32;3.90;90.70
47805;DHT22;33568;45.286;9.900;2023-02-15T06:14:58;3.90;90.70
47805;DHT22;33568;45.286;9.900;2023-02-15T06:17:25;4.00;90.90
47805;DHT22;33568;45.286;9.900;2023-02-15T06:19:51;4.00;91.00
47805;DHT22;33568;45.286;9.900;2023-02-15T06:22:17;4.00;91.20
47805;DHT22;33568;45.286;9.900;2023-02-15T06:24:44;4.10;91.40
47805;DHT22;33568;45.286;9.900;2023-02-15T06:27:10;4.10;91.70
47805;DHT22;33568;45.286;9.900;2023-02-15T06:29:37;4.20;91.80
47805;DHT22;33568;45.286;9.900;2023-02-15T06:32:04;4.30;92.00
47805;DHT22;33568;45.286;9.900;2023-02-15T06:34:30;4.40;92.20
47805;DHT22;33568;45.286;9.900;2023-02-15T06:36:57;4.40;92.20
47805;DHT22;33568;45.286;9.900;2023-02-15T06:39:23;4.50;92.30
47805;DHT22;33568;45.286;9.900;2023-02-15T06:41:49;4.50;93.60
47805;DHT22;33568;45.286;9.900;2023-02-15T06:44:16;4.60;92.40
47805;DHT22;33568;45.286;9.900;2023-02-15T06:46:42;4.60;92.30
47805;DHT22;33568;45.286;9.900;2023-02-15T06:49:08;4.70;92.30
47805;DHT22;33568;45.286;9.900;2023-02-15T06:51:35;4.80;92.30
47805;DHT22;33568;45.286;9.900;2023-02-15T06:54:01;4.80;92.20
47805;DHT22;33568;45.286;9.900;2023-02-15T06:56:28;4.80;92.30
47805;DHT22;33568;45.286;9.900;2023-02-15T06:58:55;4.80;92.30
47805;DHT22;33568;45.286;9.900;2023-02-15T07:01:22;4.90;92.40
47805;DHT22;33568;45.286;9.900;2023-02-15T07:03:48;4.90;92.40
47805;DHT22;33568;45.286;9.900;2023-02-15T07:06:15;4.90;92.50
47805;DHT22;33568;45.286;9.900;2023-02-15T07:08:42;5.00;92.50
47805;DHT22;33568;45.286;9.900;2023-02-15T07:11:08;5.00;93.30
47805;DHT22;33568;45.286;9.900;2023-02-15T07:13:53;5.00;92.70
47805;DHT22;33568;45.286;9.900;2023-02-15T07:16:19;5.00;92.30
47805;DHT22;33568;45.286;9.900;2023-02-15T07:18:46;5.10;92.30
47805;DHT22;33568;45.286;9.900;2023-02-15T07:21:12;5.10;93.30
47805;DHT22;33568;45.286;9.900;2023-02-15T07:23:39;5.20;92.30
47805;DHT22;33568;45.286;9.900;2023-02-15T07:26:07;5.20;93.50
47805;DHT22;33568;45.286;9.900;2023-02-15T07:28:34;5.30;92.20
47805;DHT22;33568;45.286;9.900;2023-02-15T07:31:02;5.20;92.30
47805;DHT22;33568;45.286;9.900;2023-02-15T07:33:31;5.20;92.30
47805;DHT22;33568;45.286;9.900;2023-02-15T07:36:02;5.20;92.20
47805;DHT22;33568;45.286;9.900;2023-02-15T07:38:34;5.20;92.50
47805;DHT22;33568;45.286;9.900;2023-02-15T07:41:06;5.20;92.60
47805;DHT22;33568;45.286;9.900;2023-02-15T07:43:35;5.20;92.80
47805;DHT22;33568;45.286;9.900;2023-02-15T07:46:07;5.20;92.90
47805;DHT22;33568;45.286;9.900;2023-02-15T07:48:35;5.20;93.20
47805;DHT22;33568;45.286;9.900;2023-02-15T07:51:03;5.20;93.10
47805;DHT22;33568;45.286;9.900;2023-02-15T07:53:30;5.30;93.00
47805;DHT22;33568;45.286;9.900;2023-02-15T07:56:00;5.50;92.80
47805;DHT22;33568;45.286;9.900;2023-02-15T07:58:26;5.40;93.40
47805;DHT22;33568;45.286;9.900;2023-02-15T08:01:14;5.40;92.80
47805;DHT22;33568;45.286;9.900;2023-02-15T08:03:41;5.50;92.90
47805;DHT22;33568;45.286;9.900;2023-02-15T08:06:07;5.60;92.90
47805;DHT22;33568;45.286;9.900;2023-02-15T08:08:34;5.60;93.80
47805;DHT22;33568;45.286;9.900;2023-02-15T08:14:01;5.90;92.60
47805;DHT22;33568;45.286;9.900;2023-02-15T08:19:26;6.10;92.50
47805;DHT22;33568;45.286;9.900;2023-02-15T08:22:06;6.20;92.50
47805;DHT22;33568;45.286;9.900;2023-02-15T08:24:35;6.30;92.60
47805;DHT22;33568;45.286;9.900;2023-02-15T08:27:06;6.30;92.40
47805;DHT22;33568;45.286;9.900;2023-02-15T08:29:34;6.50;92.70
47805;DHT22;33568;45.286;9.900;2023-02-15T08:32:04;6.60;92.40
47805;DHT22;33568;45.286;9.900;2023-02-15T08:34:34;6.70;92.40
47805;DHT22;33568;45.286;9.900;2023-02-15T08:37:01;6.80;92.40
47805;DHT22;33568;45.286;9.900;2023-02-15T08:39:27;6.90;92.30
47805;DHT22;33568;45.286;9.900;2023-02-15T08:41:54;7.00;92.30
47805;DHT22;33568;45.286;9.900;2023-02-15T08:44:21;7.10;92.30
47805;DHT22;33568;45.286;9.900;2023-02-15T08:46:49;7.30;92.20
47805;DHT22;33568;45.286;9.900;2023-02-15T08:49:18;7.40;92.00
47805;DHT22;33568;45.286;9.900;2023-02-15T08:51:45;7.50;92.00
47805;DHT22;33568;45.286;9.900;2023-02-15T08:54:16;7.60;91.80
47805;DHT22;33568;45.286;9.900;2023-02-15T08:56:44;7.60;91.90
47805;DHT22;33568;45.286;9.900;2023-02-15T08:59:18;7.70;91.80
47805;DHT22;33568;45.286;9.900;2023-02-15T09:01:46;7.80;91.80
47805;DHT22;33568;45.286;9.900;2023-02-15T09:04:13;7.90;91.60
47805;DHT22;33568;45.286;9.900;2023-02-15T09:06:43;8.10;91.50
47805;DHT22;33568;45.286;9.900;2023-02-15T09:09:10;8.20;91.30
47805;DHT22;33568;45.286;9.900;2023-02-15T09:11:40;8.30;91.20
47805;DHT22;33568;45.286;9.900;2023-02-15T09:14:17;8.40;91.10
47805;DHT22;33568;45.286;9.900;2023-02-15T09:16:46;8.60;91.20
47805;DHT22;33568;45.286;9.900;2023-02-15T09:19:15;8.70;90.70
47805;DHT22;33568;45.286;9.900;2023-02-15T09:21:42;8.80;90.50
47805;DHT22;33568;45.286;9.900;2023-02-15T09:24:10;8.90;90.40
47805;DHT22;33568;45.286;9.900;2023-02-15T09:26:42;9.00;90.40
47805;DHT22;33568;45.286;9.900;2023-02-15T09:29:11;9.10;90.20
47805;DHT22;33568;45.286;9.900;2023-02-15T09:31:40;9.30;90.10
47805;DHT22;33568;45.286;9.900;2023-02-15T09:34:14;9.50;89.90
47805;DHT22;33568;45.286;9.900;2023-02-15T09:36:43;9.70;89.70
47805;DHT22;33568;45.286;9.900;2023-02-15T09:39:14;10.30;90.00
47805;DHT22;33568;45.286;9.900;2023-02-15T09:47:36;14.70;80.50
47805;DHT22;33568;45.286;9.900;2023-02-15T10:20:49;22.10;54.10
47805;DHT22;33568;45.286;9.900;2023-02-15T10:26:41;22.40;50.70
47805;DHT22;33568;45.286;9.900;2023-02-15T10:29:34;22.70;51.80
47805;DHT22;33568;45.286;9.900;2023-02-15T10:34:39;22.90;50.30
47805;DHT22;33568;45.286;9.900;2023-02-15T10:39:52;23.90;47.60
47805;DHT22;33568;45.286;9.900;2023-02-15T10:50:59;24.10;45.30
47805;DHT22;33568;45.286;9.900;2023-02-15T10:56:27;24.50;46.40
47805;DHT22;33568;45.286;9.900;2023-02-15T11:01:47;24.70;44.40
47805;DHT22;33568;45.286;9.900;2023-02-15T11:07:23;24.80;42.40
47805;DHT22;33568;45.286;9.900;2023-02-15T11:12:42;25.00;42.10
47805;DHT22;33568;45.286;9.900;2023-02-15T11:18:16;25.40;41.70
47805;DHT22;33568;45.286;9.900;2023-02-15T11:23:24;25.20;42.10
47805;DHT22;33568;45.286;9.900;2023-02-15T11:26:04;25.20;43.40
47805;DHT22;33568;45.286;9.900;2023-02-15T11:28:38;25.20;41.80
47805;DHT22;33568;45.286;9.900;2023-02-15T11:31:18;25.40;42.30
47805;DHT22;33568;45.286;9.900;2023-02-15T11:33:50;25.70;41.60
47805;DHT22;33568;45.286;9.900;2023-02-15T11:36:36;25.80;41.90
47805;DHT22;33568;45.286;9.900;2023-02-15T11:39:16;25.70;40.50
47805;DHT22;33568;45.286;9.900;2023-02-15T11:41:49;25.70;41.00
47805;DHT22;33568;45.286;9.900;2023-02-15T11:44:22;25.90;41.40
47805;DHT22;33568;45.286;9.900;2023-02-15T11:46:50;26.00;41.40
47805;DHT22;33568;45.286;9.900;2023-02-15T11:49:36;26.20;41.60
47805;DHT22;33568;45.286;9.900;2023-02-15T11:52:15;26.50;39.50
47805;DHT22;33568;45.286;9.900;2023-02-15T11:54:46;26.80;39.80
47805;DHT22;33568;45.286;9.900;2023-02-15T11:57:37;26.90;40.70
47805;DHT22;33568;45.286;9.900;2023-02-15T12:00:31;27.20;39.30
47805;DHT22;33568;45.286;9.900;2023-02-15T12:03:07;27.40;38.70
47805;DHT22;33568;45.286;9.900;2023-02-15T12:05:37;27.70;40.20
47805;DHT22;33568;45.286;9.900;2023-02-15T12:08:16;27.90;39.70
47805;DHT22;33568;45.286;9.900;2023-02-15T12:11:11;27.90;38.60
47805;DHT22;33568;45.286;9.900;2023-02-15T12:14:00;28.00;37.30
47805;DHT22;33568;45.286;9.900;2023-02-15T12:16:29;28.10;37.70
47805;DHT22;33568;45.286;9.900;2023-02-15T12:18:59;28.30;38.90
47805;DHT22;33568;45.286;9.900;2023-02-15T12:21:30;28.30;38.60
47805;DHT22;33568;45.286;9.900;2023-02-15T12:24:16;28.20;38.00
47805;DHT22;33568;45.286;9.900;2023-02-15T12:26:44;28.00;38.00
47805;DHT22;33568;45.286;9.900;2023-02-15T12:29:17;28.00;38.30
47805;DHT22;33568;45.286;9.900;2023-02-15T12:31:50;28.20;37.30
47805;DHT22;33568;45.286;9.900;2023-02-15T12:34:30;28.20;37.70
47805;DHT22;33568;45.286;9.900;2023-02-15T12:37:00;28.20;36.50
47805;DHT22;33568;45.286;9.900;2023-02-15T12:39:30;28.20;37.50
47805;DHT22;33568;45.286;9.900;2023-02-15T12:42:08;27.90;37.10
47805;DHT22;33568;45.286;9.900;2023-02-15T12:45:02;26.90;36.40
47805;DHT22;33568;45.286;9.900;2023-02-15T12:47:30;25.20;37.40
47805;DHT22;33568;45.286;9.900;2023-02-15T12:50:13;23.70;39.10
47805;DHT22;33568;45.286;9.900;2023-02-15T12:52:47;22.50;40.30
47805;DHT22;33568;45.286;9.900;2023-02-15T12:55:26;21.50;41.40
47805;DHT22;33568;45.286;9.900;2023-02-15T12:58:16;20.60;42.40
47805;DHT22;33568;45.286;9.900;2023-02-15T13:00:44;20.10;43.10
47805;DHT22;33568;45.286;9.900;2023-02-15T13:03:19;19.60;43.80
47805;DHT22;33568;45.286;9.900;2023-02-15T13:05:50;19.20;44.70
47805;DHT22;33568;45.286;9.900;2023-02-15T13:08:30;18.90;45.30
47805;DHT22;33568;45.286;9.900;2023-02-15T13:11:06;18.70;45.70
47805;DHT22;33568;45.286;9.900;2023-02-15T13:13:47;18.60;46.00
47805;DHT22;33568;45.286;9.900;2023-02-15T13:16:36;18.50;46.20
47805;DHT22;33568;45.286;9.900;2023-02-15T13:19:09;18.40;46.80
47805;DHT22;33568;45.286;9.900;2023-02-15T13:21:41;18.30;47.10
47805;DHT22;33568;45.286;9.900;2023-02-15T13:26:48;18.00;47.40
47805;DHT22;33568;45.286;9.900;2023-02-15T13:29:24;18.00;47.60
47805;DHT22;33568;45.286;9.900;2023-02-15T13:31:53;17.90;47.60
47805;DHT22;33568;45.286;9.900;2023-02-15T13:34:27;17.80;47.90
47805;DHT22;33568;45.286;9.900;2023-02-15T13:39:30;17.70;48.30
47805;DHT22;33568;45.286;9.900;2023-02-15T13:52:25;17.60;48.30
47805;DHT22;33568;45.286;9.900;2023-02-15T13:55:24;17.60;48.50
47805;DHT22;33568;45.286;9.900;2023-02-15T14:09:21;17.50;48.60
47805;DHT22;33568;45.286;9.900;2023-02-15T14:12:13;17.50;48.70
47805;DHT22;33568;45.286;9.900;2023-02-15T14:26:04;17.50;47.80
47805;DHT22;33568;45.286;9.900;2023-02-15T14:29:16;17.50;48.20
47805;DHT22;33568;45.286;9.900;2023-02-15T14:31:52;17.60;48.10
47805;DHT22;33568;45.286;9.900;2023-02-15T14:34:36;17.50;48.10
47805;DHT22;33568;45.286;9.900;2023-02-15T14:37:11;17.60;48.10
47805;DHT22;33568;45.286;9.900;2023-02-15T14:39:48;17.50;48.00
47805;DHT22;33568;45.286;9.900;2023-02-15T14:50:51;17.60;47.90
47805;DHT22;33568;45.286;9.900;2023-02-15T14:58:33;17.70;47.90
47805;DHT22;33568;45.286;9.900;2023-02-15T15:01:06;17.70;48.00
47805;DHT22;33568;45.286;9.900;2023-02-15T15:03:34;17.70;48.00
47805;DHT22;33568;45.286;9.900;2023-02-15T15:06:04;17.60;48.20
47805;DHT22;33568;45.286;9.900;2023-02-15T15:08:38;17.60;48.40
47805;DHT22;33568;45.286;9.900;2023-02-15T15:13:58;17.40;48.40
47805;DHT22;33568;45.286;9.900;2023-02-15T15:16:51;17.40;48.70
47805;DHT22;33568;45.286;9.900;2023-02-15T15:22:19;17.30;48.90
47805;DHT22;33568;45.286;9.900;2023-02-15T15:24:48;17.20;49.00
47805;DHT22;33568;45.286;9.900;2023-02-15T15:49:10;16.90;50.30
47805;DHT22;33568;45.286;9.900;2023-02-15T15:51:42;16.90;50.90
47805;DHT22;33568;45.286;9.900;2023-02-15T15:54:16;16.80;50.50
47805;DHT22;33568;45.286;9.900;2023-02-15T15:56:50;16.80;50.40
47805;DHT22;33568;45.286;9.900;2023-02-15T15:59:23;16.70;50.40
47805;DHT22;33568;45.286;9.900;2023-02-15T16:01:50;16.70;50.50
47805;DHT22;33568;45.286;9.900;2023-02-15T16:04:25;16.70;50.50
47805;DHT22;33568;45.286;9.900;2023-02-15T16:06:52;16.50;50.50
47805;DHT22;33568;45.286;9.900;2023-02-15T16:09:24;16.50;50.70
47805;DHT22;33568;45.286;9.900;2023-02-15T16:11:53;16.50;50.90
47805;DHT22;33568;45.286;9.900;2023-02-15T16:14:25;16.40;51.00
47805;DHT22;33568;45.286;9.900;2023-02-15T16:16:54;16.40;51.20
47805;DHT22;33568;45.286;9.900;2023-02-15T16:19:29;16.30;51.40
47805;DHT22;33568;45.286;9.900;2023-02-15T16:21:59;16.20;51.60
47805;DHT22;33568;45.286;9.900;2023-02-15T16:25:22;16.10;51.90
47805;DHT22;33568;45.286;9.900;2023-02-15T16:27:40;16.00;52.10
47805;DHT22;33568;45.286;9.900;2023-02-15T16:32:47;15.80;52.70
47805;DHT22;33568;45.286;9.900;2023-02-15T16:35:19;15.70;52.90
47805;DHT22;33568;45.286;9.900;2023-02-15T16:37:46;15.60;53.20
47805;DHT22;33568;45.286;9.900;2023-02-15T16:40:27;15.50;53.50
47805;DHT22;33568;45.286;9.900;2023-02-15T16:43:03;15.30;54.10
47805;DHT22;33568;45.286;9.900;2023-02-15T16:45:31;15.20;54.20
47805;DHT22;33568;45.286;9.900;2023-02-15T16:48:00;15.10;54.50
47805;DHT22;33568;45.286;9.900;2023-02-15T16:50:35;15.00;54.80
47805;DHT22;33568;45.286;9.900;2023-02-15T16:53:04;14.80;55.20
47805;DHT22;33568;45.286;9.900;2023-02-15T16:55:40;14.60;55.30
47805;DHT22;33568;45.286;9.900;2023-02-15T16:58:14;14.50;55.60
47805;DHT22;33568;45.286;9.900;2023-02-15T17:00:42;14.30;55.80
47805;DHT22;33568;45.286;9.900;2023-02-15T17:08:24;13.90;56.90
47805;DHT22;33568;45.286;9.900;2023-02-15T17:13:27;13.60;57.30
47805;DHT22;33568;45.286;9.900;2023-02-15T17:18:30;13.40;58.10
47805;DHT22;33568;45.286;9.900;2023-02-15T17:21:08;13.30;58.40
47805;DHT22;33568;45.286;9.900;2023-02-15T17:23:41;13.30;58.70
47805;DHT22;33568;45.286;9.900;2023-02-15T17:26:23;13.20;59.10
47805;DHT22;33568;45.286;9.900;2023-02-15T17:29:40;13.10;59.60
47805;DHT22;33568;45.286;9.900;2023-02-15T17:31:47;13.00;59.80
47805;DHT22;33568;45.286;9.900;2023-02-15T17:40:20;12.70;60.60
47805;DHT22;33568;45.286;9.900;2023-02-15T17:42:47;12.60;61.20
47805;DHT22;33568;45.286;9.900;2023-02-15T17:45:14;12.50;61.10
47805;DHT22;33568;45.286;9.900;2023-02-15T17:47:40;12.40;62.50
47805;DHT22;33568;45.286;9.900;2023-02-15T17:50:10;12.40;61.20
47805;DHT22;33568;45.286;9.900;2023-02-15T17:52:41;12.30;61.40
47805;DHT22;33568;45.286;9.900;2023-02-15T17:55:12;12.30;61.60
47805;DHT22;33568;45.286;9.900;2023-02-15T17:57:57;12.10;63.00
47805;DHT22;33568;45.286;9.900;2023-02-15T18:00:23;12.10;61.60
47805;DHT22;33568;45.286;9.900;2023-02-15T18:03:12;12.10;61.70
47805;DHT22;33568;45.286;9.900;2023-02-15T18:05:57;12.00;62.00
47805;DHT22;33568;45.286;9.900;2023-02-15T18:08:42;12.00;62.40
47805;DHT22;33568;45.286;9.900;2023-02-15T18:11:27;12.00;62.70
47805;DHT22;33568;45.286;9.900;2023-02-15T18:14:08;11.90;63.00
47805;DHT22;33568;45.286;9.900;2023-02-15T18:16:37;11.90;63.30
47805;DHT22;33568;45.286;9.900;2023-02-15T18:19:10;11.80;63.60
47805;DHT22;33568;45.286;9.900;2023-02-15T18:21:39;11.80;64.00
47805;DHT22;33568;45.286;9.900;2023-02-15T18:24:07;11.80;64.20
47805;DHT22;33568;45.286;9.900;2023-02-15T18:26:39;11.80;64.40
47805;DHT22;33568;45.286;9.900;2023-02-15T18:29:05;11.70;64.40
47805;DHT22;33568;45.286;9.900;2023-02-15T18:31:31;11.70;64.50
47805;DHT22;33568;45.286;9.900;2023-02-15T18:34:00;11.60;66.10
47805;DHT22;33568;45.286;9.900;2023-02-15T18:36:35;11.60;64.60
47805;DHT22;33568;45.286;9.900;2023-02-15T18:39:03;11.60;64.70
47805;DHT22;33568;45.286;9.900;2023-02-15T18:41:29;11.60;64.70
47805;DHT22;33568;45.286;9.900;2023-02-15T18:43:56;11.50;64.90
47805;DHT22;33568;45.286;9.900;2023-02-15T18:46:22;11.50;65.00
47805;DHT22;33568;45.286;9.900;2023-02-15T18:48:48;11.40;65.10
47805;DHT22;33568;45.286;9.900;2023-02-15T18:51:22;11.30;66.50
47805;DHT22;33568;45.286;9.900;2023-02-15T18:53:52;11.30;65.30
47805;DHT22;33568;45.286;9.900;2023-02-15T18:56:21;11.20;65.40
47805;DHT22;33568;45.286;9.900;2023-02-15T18:58:48;11.20;65.70
47805;DHT22;33568;45.286;9.900;2023-02-15T19:01:17;11.10;65.90
47805;DHT22;33568;45.286;9.900;2023-02-15T19:03:45;11.00;66.00
47805;DHT22;33568;45.286;9.900;2023-02-15T19:06:14;11.00;66.20
47805;DHT22;33568;45.286;9.900;2023-02-15T19:08:45;10.90;66.30
47805;DHT22;33568;45.286;9.900;2023-02-15T19:11:15;10.90;66.40
47805;DHT22;33568;45.286;9.900;2023-02-15T19:13:44;10.80;66.60
47805;DHT22;33568;45.286;9.900;2023-02-15T19:16:25;10.80;66.80
47805;DHT22;33568;45.286;9.900;2023-02-15T19:18:53;10.70;67.00
47805;DHT22;33568;45.286;9.900;2023-02-15T19:21:19;10.60;67.10
47805;DHT22;33568;45.286;9.900;2023-02-15T19:23:50;10.60;67.20
47805;DHT22;33568;45.286;9.900;2023-02-15T19:26:18;10.60;67.40
47805;DHT22;33568;45.286;9.900;2023-02-15T19:28:45;10.60;67.50
47805;DHT22;33568;45.286;9.900;2023-02-15T19:31:12;10.50;67.60
47805;DHT22;33568;45.286;9.900;2023-02-15T19:33:38;10.50;67.70